createdAt,value
2022-10-01T00:01:04.868Z,5.30
2022-10-01T00:03:31.725Z,4.57
2022-10-01T00:06:20.741Z,4.63
2022-10-01T00:08:51.185Z,4.30
2022-10-01T00:11:22.143Z,4.10
2022-10-01T00:13:54.565Z,4.60
2022-10-01T00:16:29.989Z,4.38
2022-10-01T00:18:58.447Z,4.65
2022-10-01T00:21:32.690Z,4.53
2022-10-01T00:24:06.511Z,4.65
2022-10-01T00:26:37.694Z,4.20
2022-10-01T00:29:14.931Z,4.65
2022-10-01T00:31:49.722Z,5.00
2022-10-01T00:34:17.269Z,5.00
2022-10-01T00:36:49.867Z,5.00
2022-10-01T00:39:20.416Z,4.78
2022-10-01T00:41:51.119Z,4.35
2022-10-01T00:44:36.614Z,4.65
2022-10-01T00:47:27.085Z,4.33
2022-10-01T00:50:12.337Z,3.55
2022-10-01T00:52:41.987Z,4.70
2022-10-01T00:55:13.463Z,4.28
2022-10-01T00:57:43.796Z,3.33
2022-10-01T01:00:14.221Z,4.07
2022-10-01T01:02:42.234Z,3.80
2022-10-01T01:05:13.596Z,4.35
2022-10-01T01:07:45.427Z,3.67
2022-10-01T01:10:24.282Z,4.38
2022-10-01T01:13:12.909Z,3.90
2022-10-01T01:16:12.844Z,3.53
2022-10-01T01:18:50.552Z,4.25
2022-10-01T01:21:29.336Z,3.80
2022-10-01T01:24:37.343Z,3.50
2022-10-01T01:27:31.507Z,2.93
2022-10-01T01:30:08.385Z,3.08
2022-10-01T01:33:28.137Z,3.50
2022-10-01T01:36:05.436Z,3.03
2022-10-01T01:38:52.113Z,3.25
2022-10-01T01:41:22.250Z,2.83
2022-10-01T01:43:53.953Z,3.28
2022-10-01T01:46:21.486Z,3.08
2022-10-01T01:48:51.214Z,3.35
2022-10-01T01:51:51.283Z,2.95
2022-10-01T01:54:20.362Z,3.17
2022-10-01T01:56:50.245Z,2.90
2022-10-01T01:59:19.728Z,3.40
2022-10-01T02:01:53.360Z,3.22
2022-10-01T02:04:33.736Z,2.90
2022-10-01T02:07:47.420Z,2.60
2022-10-01T02:10:25.019Z,2.20
2022-10-01T02:13:29.797Z,2.53
2022-10-01T02:16:27.703Z,1.98
2022-10-01T02:19:27.012Z,2.55
2022-10-01T02:22:28.577Z,2.47
2022-10-01T02:25:26.925Z,1.92
2022-10-01T02:28:01.650Z,1.55
2022-10-01T02:30:40.481Z,1.63
2022-10-01T02:33:12.185Z,2.20
2022-10-01T02:35:51.488Z,1.70
2022-10-01T02:38:19.868Z,1.98
2022-10-01T02:40:55.650Z,2.00
2022-10-01T02:43:54.322Z,2.33
2022-10-01T02:46:28.446Z,1.60
2022-10-01T02:48:59.616Z,1.30
2022-10-01T02:52:15.587Z,1.40
2022-10-01T02:54:59.553Z,1.70
2022-10-01T02:57:42.053Z,1.60
2022-10-01T03:00:15.512Z,1.40
2022-10-01T03:02:52.823Z,1.20
2022-10-01T03:05:39.764Z,1.35
2022-10-01T03:08:19.547Z,1.70
2022-10-01T03:10:58.320Z,1.20
2022-10-01T03:13:28.679Z,1.40
2022-10-01T03:15:59.293Z,1.20
2022-10-01T03:18:25.865Z,1.73
2022-10-01T03:20:55.445Z,1.40
2022-10-01T03:23:22.101Z,1.55
2022-10-01T03:25:48.546Z,1.38
2022-10-01T03:28:16.259Z,1.33
2022-10-01T03:30:42.874Z,1.00
2022-10-01T03:33:24.781Z,1.38
2022-10-01T03:35:58.235Z,1.58
2022-10-01T03:38:24.674Z,1.20
2022-10-01T03:41:03.496Z,1.67
2022-10-01T03:43:31.957Z,1.35
2022-10-01T03:46:14.957Z,1.55
2022-10-01T03:48:43.456Z,1.50
2022-10-01T03:51:09.926Z,2.00
2022-10-01T03:54:09.795Z,1.73
2022-10-01T03:56:40.851Z,1.92
2022-10-01T03:59:10.101Z,1.98
2022-10-01T04:01:38.968Z,1.55
2022-10-01T04:04:09.906Z,1.98
2022-10-01T04:06:38.454Z,1.73
2022-10-01T04:09:19.301Z,1.60
2022-10-01T04:11:54.977Z,2.30
2022-10-01T04:14:27.743Z,1.58
2022-10-01T04:16:55.227Z,1.95
2022-10-01T04:19:21.711Z,2.03
2022-10-01T04:21:51.200Z,2.28
2022-10-01T04:24:20.742Z,2.17
2022-10-01T04:27:14.296Z,2.17
2022-10-01T04:29:49.936Z,2.30
2022-10-01T04:32:21.665Z,2.20
2022-10-01T04:34:54.117Z,2.50
2022-10-01T04:37:28.926Z,2.95
2022-10-01T04:39:57.438Z,3.05
2022-10-01T04:42:35.494Z,2.67
2022-10-01T04:45:19.980Z,3.27
2022-10-01T04:47:59.788Z,3.45
2022-10-01T04:50:42.500Z,3.30
2022-10-01T04:53:20.203Z,3.17
2022-10-01T04:55:46.724Z,3.67
2022-10-01T04:58:19.392Z,2.90
2022-10-01T05:00:50.319Z,3.28
2022-10-01T05:03:36.043Z,3.53
2022-10-01T05:06:11.791Z,3.08
2022-10-01T05:08:57.532Z,4.07
2022-10-01T05:11:44.276Z,3.83
2022-10-01T05:14:22.478Z,4.10
2022-10-01T05:16:57.308Z,3.58
2022-10-01T05:19:28.944Z,3.83
2022-10-01T05:22:00.956Z,4.53
2022-10-01T05:24:29.159Z,4.07
2022-10-01T05:27:19.909Z,3.45
2022-10-01T05:30:01.444Z,4.22
2022-10-01T05:32:28.057Z,3.50
2022-10-01T05:35:05.711Z,4.00
2022-10-01T05:37:46.500Z,4.13
2022-10-01T05:40:15.406Z,4.03
2022-10-01T05:42:47.540Z,4.20
2022-10-01T05:45:14.848Z,3.80
2022-10-01T05:47:48.570Z,4.53
2022-10-01T05:51:06.565Z,3.93
2022-10-01T05:54:05.340Z,4.13
2022-10-01T05:56:32.000Z,4.32
2022-10-01T05:59:00.579Z,4.25
2022-10-01T06:01:39.392Z,4.10
2022-10-01T06:04:10.771Z,4.37
2022-10-01T06:06:56.927Z,4.15
2022-10-01T06:09:23.472Z,4.28
2022-10-01T06:11:50.086Z,4.35
2022-10-01T06:14:24.678Z,4.20
2022-10-01T06:17:01.303Z,3.87
2022-10-01T06:19:29.765Z,4.38
2022-10-01T06:22:00.289Z,4.25
2022-10-01T06:24:36.320Z,4.50
2022-10-01T06:27:05.723Z,4.50
2022-10-01T06:29:49.549Z,3.90
2022-10-01T06:32:52.248Z,3.45
2022-10-01T06:35:21.734Z,4.13
2022-10-01T06:37:54.313Z,3.80
2022-10-01T06:40:44.379Z,4.45
2022-10-01T06:43:11.855Z,3.93
2022-10-01T06:45:44.159Z,3.88
2022-10-01T06:48:24.047Z,4.53
2022-10-01T06:50:53.111Z,4.25
2022-10-01T06:53:22.557Z,3.70
2022-10-01T06:55:49.984Z,4.20
2022-10-01T06:58:43.421Z,4.23
2022-10-01T07:01:29.093Z,3.92
2022-10-01T07:04:03.676Z,3.97
2022-10-01T07:06:33.249Z,3.97
2022-10-01T07:09:15.295Z,3.83
2022-10-01T07:11:42.766Z,3.85
2022-10-01T07:14:21.610Z,4.40
2022-10-01T07:16:59.089Z,4.60
2022-10-01T07:19:25.537Z,3.88
2022-10-01T07:21:58.008Z,3.97
2022-10-01T07:24:24.445Z,4.15
2022-10-01T07:27:17.188Z,4.93
2022-10-01T07:29:43.730Z,4.78
2022-10-01T07:32:16.615Z,4.57
2022-10-01T07:34:44.207Z,4.50
2022-10-01T07:37:17.208Z,4.13
2022-10-01T07:39:52.075Z,4.13
2022-10-01T07:42:20.613Z,3.45
2022-10-01T07:44:59.267Z,4.00
2022-10-01T07:47:26.751Z,3.77
2022-10-01T07:50:22.165Z,3.53
2022-10-01T07:53:02.818Z,3.33
2022-10-01T07:55:48.736Z,3.00
2022-10-01T07:58:23.768Z,3.65
2022-10-01T08:00:58.793Z,3.73
2022-10-01T08:03:36.653Z,3.40
2022-10-01T08:06:05.764Z,3.25
2022-10-01T08:08:46.697Z,3.28
2022-10-01T08:11:17.698Z,3.15
2022-10-01T08:13:48.088Z,2.77
2022-10-01T08:16:16.634Z,2.97
2022-10-01T08:21:22.397Z,2.30
2022-10-01T08:23:49.287Z,2.60
2022-10-01T08:26:51.013Z,2.77
2022-10-01T08:29:17.659Z,2.65
2022-10-01T08:31:54.562Z,3.05
2022-10-01T08:34:25.186Z,3.33
2022-10-01T08:36:52.094Z,2.70
2022-10-01T08:39:18.752Z,2.70
2022-10-01T08:41:58.829Z,2.65
2022-10-01T08:44:43.533Z,3.20
2022-10-01T08:47:34.944Z,2.72
2022-10-01T08:50:25.294Z,2.75
2022-10-01T08:53:01.733Z,2.50
2022-10-01T08:55:36.400Z,2.60
2022-10-01T08:58:25.761Z,2.38
2022-10-01T09:00:55.392Z,1.88
2022-10-01T09:03:34.169Z,2.05
2022-10-01T09:06:26.928Z,1.80
2022-10-01T09:09:23.748Z,1.80
2022-10-01T09:12:12.155Z,1.33
2022-10-01T09:14:54.865Z,1.30
2022-10-01T09:17:51.281Z,1.30
2022-10-01T09:20:26.923Z,1.80
2022-10-01T09:23:17.567Z,1.42
2022-10-01T09:25:52.484Z,1.73
2022-10-01T09:28:49.500Z,1.20
2022-10-01T09:31:39.379Z,1.83
2022-10-01T09:34:43.907Z,1.30
2022-10-01T09:37:49.604Z,0.98
2022-10-01T09:40:39.899Z,1.52
2022-10-01T09:43:10.945Z,1.33
2022-10-01T09:45:38.428Z,1.42
2022-10-01T09:48:23.078Z,1.53
2022-10-01T09:50:58.191Z,1.33
2022-10-01T09:54:03.454Z,1.30
2022-10-01T09:56:35.043Z,1.13
2022-10-01T09:59:07.087Z,1.40
2022-10-01T10:01:43.798Z,1.37
2022-10-01T10:04:11.266Z,0.85
2022-10-01T10:06:39.162Z,1.17
2022-10-01T10:09:16.378Z,1.52
2022-10-01T10:11:42.972Z,1.35
2022-10-01T10:14:19.137Z,1.03
2022-10-01T10:16:48.121Z,1.30
2022-10-01T10:19:28.275Z,1.25
2022-10-01T10:22:13.390Z,1.20
2022-10-01T10:24:42.974Z,1.15
2022-10-01T10:27:59.732Z,1.40
2022-10-01T10:30:31.759Z,1.10
2022-10-01T10:33:08.146Z,1.52
2022-10-01T10:35:37.225Z,1.20
2022-10-01T10:38:16.552Z,1.30
2022-10-01T10:40:45.446Z,0.77
2022-10-01T10:43:35.502Z,1.92
2022-10-01T10:46:05.899Z,1.35
2022-10-01T10:48:45.457Z,1.27
2022-10-01T10:51:30.547Z,1.35
2022-10-01T10:54:04.804Z,0.70
2022-10-01T10:56:35.808Z,1.10
2022-10-01T10:59:36.630Z,1.55
2022-10-01T11:02:18.617Z,0.93
2022-10-01T11:04:55.142Z,1.15
2022-10-01T11:07:24.580Z,1.17
2022-10-01T11:10:23.025Z,1.20
2022-10-01T11:13:06.716Z,1.00
2022-10-01T11:15:46.074Z,1.05
2022-10-01T11:18:47.723Z,1.35
2022-10-01T11:21:31.745Z,1.13
2022-10-01T11:24:16.367Z,1.15
2022-10-01T11:27:16.296Z,1.08
2022-10-01T11:30:09.784Z,1.08
2022-10-01T11:32:46.152Z,1.20
2022-10-01T11:35:47.813Z,1.57
2022-10-01T11:38:36.247Z,1.02
2022-10-01T11:41:14.779Z,1.10
2022-10-01T11:43:54.307Z,1.13
2022-10-01T11:46:35.604Z,1.38
2022-10-01T11:49:08.292Z,1.03
2022-10-01T11:51:41.600Z,1.48
2022-10-01T11:54:14.355Z,1.38
2022-10-01T11:57:09.226Z,1.17
2022-10-01T11:59:50.501Z,1.05
2022-10-01T12:02:27.093Z,1.20
2022-10-01T12:05:01.437Z,1.02
2022-10-01T12:07:49.753Z,1.10
2022-10-01T12:10:29.387Z,1.00
2022-10-01T12:13:15.936Z,1.25
2022-10-01T12:16:11.397Z,1.00
2022-10-01T12:18:48.174Z,1.42
2022-10-01T12:21:23.481Z,1.00
2022-10-01T12:23:59.805Z,1.75
2022-10-01T12:26:48.609Z,2.13
2022-10-01T12:29:39.608Z,1.40
2022-10-01T12:32:24.261Z,0.90
2022-10-01T12:35:26.821Z,1.30
2022-10-01T12:38:30.986Z,0.93
2022-10-01T12:41:12.762Z,1.50
2022-10-01T12:44:06.430Z,1.10
2022-10-01T12:46:58.076Z,1.10
2022-10-01T12:49:36.696Z,1.80
2022-10-01T12:52:19.493Z,1.55
2022-10-01T12:55:08.165Z,1.15
2022-10-01T12:57:44.982Z,0.93
2022-10-01T13:00:23.136Z,1.08
2022-10-01T13:03:28.326Z,0.90
2022-10-01T13:06:07.429Z,1.27
2022-10-01T13:08:58.037Z,1.38
2022-10-01T13:11:45.042Z,1.07
2022-10-01T13:14:18.135Z,0.73
2022-10-01T13:17:06.727Z,1.15
2022-10-01T13:19:53.257Z,1.10
2022-10-01T13:22:34.442Z,1.20
2022-10-01T13:25:43.161Z,1.70
2022-10-01T13:28:15.839Z,1.27
2022-10-01T13:30:55.291Z,1.50
2022-10-01T13:33:28.328Z,1.80
2022-10-01T13:36:01.053Z,1.85
2022-10-01T13:38:30.580Z,1.63
2022-10-01T13:41:06.019Z,1.95
2022-10-01T13:43:34.130Z,1.55
2022-10-01T13:46:10.941Z,1.25
2022-10-01T13:48:45.279Z,1.27
2022-10-01T13:51:14.813Z,1.33
2022-10-01T13:53:41.158Z,0.82
2022-10-01T13:56:09.503Z,1.40
2022-10-01T13:58:39.504Z,1.40
2022-10-01T14:01:29.795Z,1.60
2022-10-01T14:04:16.105Z,1.17
2022-10-01T14:06:57.052Z,1.20
2022-10-01T14:09:29.952Z,0.90
2022-10-01T14:12:18.205Z,0.80
2022-10-01T14:15:19.784Z,1.33
2022-10-01T14:17:55.052Z,1.80
2022-10-01T14:20:27.322Z,1.42
2022-10-01T14:23:10.813Z,1.20
2022-10-01T14:25:54.901Z,2.38
2022-10-01T14:28:35.387Z,1.92
2022-10-01T14:31:12.604Z,1.93
2022-10-01T14:34:03.099Z,1.50
2022-10-01T14:36:42.150Z,1.40
2022-10-01T14:39:15.849Z,1.40
2022-10-01T14:41:42.797Z,1.20
2022-10-01T14:44:23.271Z,1.37
2022-10-01T14:46:52.814Z,0.98
2022-10-01T14:49:21.402Z,1.40
2022-10-01T14:51:55.657Z,2.00
2022-10-01T14:54:23.298Z,1.30
2022-10-01T14:56:50.668Z,1.63
2022-10-01T14:59:35.018Z,1.60
2022-10-01T15:02:16.020Z,2.00
2022-10-01T15:04:50.766Z,1.60
2022-10-01T15:07:19.437Z,1.23
2022-10-01T15:09:48.294Z,1.73
2022-10-01T15:12:16.841Z,1.65
2022-10-01T15:14:44.572Z,1.67
2022-10-01T15:17:23.302Z,1.40
2022-10-01T15:19:52.285Z,1.50
2022-10-01T15:22:27.055Z,1.50
2022-10-01T15:24:57.863Z,1.70
2022-10-01T15:27:25.976Z,2.22
2022-10-01T15:29:56.524Z,3.25
2022-10-01T15:32:24.901Z,2.50
2022-10-01T15:34:55.222Z,1.90
2022-10-01T15:37:35.857Z,1.85
2022-10-01T15:40:07.015Z,1.98
2022-10-01T15:42:34.977Z,1.77
2022-10-01T15:45:07.420Z,1.33
2022-10-01T15:47:40.328Z,1.40
2022-10-01T15:50:10.274Z,1.38
2022-10-01T15:52:52.374Z,2.20
2022-10-01T15:55:40.892Z,1.30
2022-10-01T15:58:15.674Z,1.50
2022-10-01T16:00:58.784Z,1.37
2022-10-01T16:03:31.288Z,0.85
2022-10-01T16:06:01.461Z,1.83
2022-10-01T16:08:35.532Z,1.33
2022-10-01T16:11:16.302Z,1.65
2022-10-01T16:13:44.903Z,1.13
2022-10-01T16:16:15.110Z,1.30
2022-10-01T16:18:42.476Z,1.27
2022-10-01T16:21:11.141Z,1.80
2022-10-01T16:23:47.929Z,1.40
2022-10-01T16:26:29.843Z,0.87
2022-10-01T16:29:00.225Z,1.38
2022-10-01T16:31:26.952Z,1.58
2022-10-01T16:33:53.416Z,1.15
2022-10-01T16:36:22.025Z,1.25
2022-10-01T16:38:48.482Z,1.00
2022-10-01T16:41:20.474Z,1.20
2022-10-01T16:43:47.781Z,1.38
2022-10-01T16:46:14.260Z,0.90
2022-10-01T16:48:54.164Z,1.23
2022-10-01T16:51:24.361Z,1.13
2022-10-01T16:53:56.997Z,0.93
2022-10-01T16:56:43.786Z,1.35
2022-10-01T16:59:10.437Z,1.05
2022-10-01T17:01:37.274Z,1.27
2022-10-01T17:04:04.805Z,0.83
2022-10-01T17:06:31.191Z,0.95
2022-10-01T17:08:57.666Z,1.63
2022-10-01T17:11:26.983Z,1.10
2022-10-01T17:13:53.427Z,1.38
2022-10-01T17:16:24.539Z,1.00
2022-10-01T17:18:51.196Z,0.95
2022-10-01T17:21:17.648Z,1.05
2022-10-01T17:23:44.195Z,1.38
2022-10-01T17:26:10.722Z,1.10
2022-10-01T17:28:37.491Z,1.03
2022-10-01T17:31:08.094Z,0.90
2022-10-01T17:33:34.679Z,1.30
2022-10-01T17:36:06.513Z,1.38
2022-10-01T17:38:33.072Z,1.15
2022-10-01T17:41:01.022Z,1.10
2022-10-01T17:43:27.484Z,1.52
2022-10-01T17:45:59.528Z,1.40
2022-10-01T17:48:27.306Z,1.33
2022-10-01T17:51:05.743Z,1.23
2022-10-01T17:53:39.670Z,1.30
2022-10-01T17:56:10.257Z,1.60
2022-10-01T17:58:38.004Z,2.22
2022-10-01T18:01:14.855Z,1.38
2022-10-01T18:03:41.387Z,1.42
2022-10-01T18:06:09.836Z,1.60
2022-10-01T18:08:54.080Z,1.45
2022-10-01T18:11:22.586Z,1.65
2022-10-01T18:13:50.474Z,1.33
2022-10-01T18:16:19.288Z,1.80
2022-10-01T18:21:34.138Z,2.60
2022-10-01T18:24:04.499Z,2.38
2022-10-01T18:26:32.673Z,2.08
2022-10-01T18:28:59.491Z,2.97
2022-10-01T18:31:29.134Z,2.00
2022-10-01T18:33:58.971Z,2.13
2022-10-01T18:36:44.086Z,2.72
2022-10-01T18:39:21.028Z,2.42
2022-10-01T18:41:49.359Z,2.40
2022-10-01T18:44:20.498Z,1.87
2022-10-01T18:46:50.241Z,2.67
2022-10-01T18:49:38.017Z,2.22
2022-10-01T18:52:26.749Z,2.38
2022-10-01T18:55:46.916Z,2.40
2022-10-01T18:58:42.170Z,2.10
2022-10-01T19:01:26.812Z,2.40
2022-10-01T19:04:00.229Z,1.75
2022-10-01T19:06:29.656Z,2.10
2022-10-01T19:09:30.005Z,2.30
2022-10-01T19:12:10.117Z,1.73
2022-10-01T19:14:58.371Z,1.83
2022-10-01T19:17:52.892Z,2.70
2022-10-01T19:20:46.319Z,2.03
2022-10-01T19:23:34.076Z,2.10
2022-10-01T19:26:13.763Z,2.00
2022-10-01T19:29:04.304Z,1.80
2022-10-01T19:32:18.801Z,1.80
2022-10-01T19:34:57.782Z,1.55
2022-10-01T19:37:45.034Z,1.70
2022-10-01T19:40:40.901Z,1.77
2022-10-01T19:43:33.619Z,1.35
2022-10-01T19:46:26.512Z,2.03
2022-10-01T19:49:12.996Z,1.30
2022-10-01T19:51:43.750Z,1.80
2022-10-01T19:54:16.461Z,1.37
2022-10-01T19:56:46.571Z,2.03
2022-10-01T19:59:19.246Z,2.20
2022-10-01T20:01:58.221Z,2.03
2022-10-01T20:04:38.411Z,2.00
2022-10-01T20:07:14.207Z,1.67
2022-10-01T20:09:46.775Z,2.20
2022-10-01T20:12:36.174Z,1.83
2022-10-01T20:15:21.813Z,1.83
2022-10-01T20:18:13.099Z,1.45
2022-10-01T20:21:18.391Z,1.23
2022-10-01T20:23:56.732Z,2.05
2022-10-01T20:26:39.402Z,1.60
2022-10-01T20:29:21.397Z,1.55
2022-10-01T20:32:23.298Z,1.70
2022-10-01T20:35:28.389Z,1.83
2022-10-01T20:37:59.088Z,1.50
2022-10-01T20:40:55.983Z,2.50
2022-10-01T20:43:33.475Z,1.70
2022-10-01T20:46:19.228Z,2.00
2022-10-01T20:49:23.856Z,1.53
2022-10-01T20:54:58.140Z,1.52
2022-10-01T21:08:46.345Z,1.90
2022-10-01T21:11:41.649Z,1.58
2022-10-01T21:17:02.833Z,1.73
2022-10-01T21:32:52.730Z,1.60
2022-10-01T21:35:43.850Z,1.27
2022-10-01T21:38:51.697Z,2.22
2022-10-01T21:53:05.069Z,1.98
2022-10-01T21:55:58.002Z,1.60
2022-10-01T21:58:44.209Z,1.88
2022-10-01T22:01:41.073Z,1.50
2022-10-01T22:04:44.583Z,1.77
2022-10-01T22:07:46.335Z,1.40
2022-10-01T22:10:34.119Z,1.65
2022-10-01T22:13:09.474Z,2.00
2022-10-01T22:15:44.162Z,1.80
2022-10-01T22:18:32.752Z,1.67
2022-10-01T22:21:07.362Z,1.63
2022-10-01T22:24:12.603Z,2.00
2022-10-01T22:27:13.952Z,1.88
2022-10-01T22:29:50.302Z,1.83
2022-10-01T22:32:24.502Z,1.58
2022-10-01T22:35:42.768Z,1.90
2022-10-01T22:38:23.325Z,1.92
2022-10-01T22:41:17.919Z,2.13
2022-10-01T22:43:46.599Z,2.00
2022-10-01T22:46:35.093Z,1.60
2022-10-01T22:49:38.924Z,2.22
2022-10-01T22:53:00.548Z,1.52
2022-10-01T22:55:44.077Z,2.08
2022-10-01T22:58:50.140Z,1.30
2022-10-01T23:02:09.706Z,1.90
2022-10-01T23:04:55.737Z,1.30
2022-10-01T23:08:04.726Z,1.35
2022-10-01T23:11:09.684Z,1.58
2022-10-01T23:14:21.035Z,1.23
2022-10-01T23:17:06.239Z,1.00
2022-10-01T23:19:36.322Z,2.28
2022-10-01T23:22:38.821Z,2.13
2022-10-01T23:25:54.273Z,1.70
2022-10-01T23:28:53.272Z,1.50
2022-10-01T23:31:35.970Z,1.35
2022-10-01T23:34:46.360Z,1.55
2022-10-01T23:37:58.215Z,1.90
2022-10-01T23:40:34.470Z,1.65
2022-10-01T23:43:19.202Z,1.53
2022-10-01T23:45:53.837Z,2.63
2022-10-01T23:48:59.650Z,1.40
2022-10-01T23:51:37.776Z,1.02
2022-10-01T23:54:17.733Z,1.40
2022-10-01T23:56:51.168Z,1.77
